sensor_id;sensor_type;location;lat;lon;timestamp;temperature;humidity
76855;DHT22;66343;44.588;33.450;2023-04-19T00:00:36;14.98;70.41
76855;DHT22;66343;44.588;33.450;2023-04-19T00:03:06;14.97;70.26
76855;DHT22;66343;44.588;33.450;2023-04-19T00:05:37;14.97;70.35
76855;DHT22;66343;44.588;33.450;2023-04-19T00:08:06;14.78;71.48
76855;DHT22;66343;44.588;33.450;2023-04-19T00:10:38;14.73;71.61
76855;DHT22;66343;44.588;33.450;2023-04-19T00:13:07;14.83;71.15
76855;DHT22;66343;44.588;33.450;2023-04-19T00:15:37;14.85;71.06
76855;DHT22;66343;44.588;33.450;2023-04-19T00:18:08;14.84;70.96
76855;DHT22;66343;44.588;33.450;2023-04-19T00:20:40;14.85;71.14
76855;DHT22;66343;44.588;33.450;2023-04-19T00:23:09;14.79;71.49
76855;DHT22;66343;44.588;33.450;2023-04-19T00:25:38;14.75;71.78
76855;DHT22;66343;44.588;33.450;2023-04-19T00:28:11;14.69;72.20
76855;DHT22;66343;44.588;33.450;2023-04-19T00:30:42;14.68;72.39
76855;DHT22;66343;44.588;33.450;2023-04-19T00:33:12;14.64;72.70
76855;DHT22;66343;44.588;33.450;2023-04-19T00:35:41;14.63;72.70
76855;DHT22;66343;44.588;33.450;2023-04-19T00:38:10;14.67;72.60
76855;DHT22;66343;44.588;33.450;2023-04-19T00:40:42;14.69;72.49
76855;DHT22;66343;44.588;33.450;2023-04-19T00:43:18;14.73;72.20
76855;DHT22;66343;44.588;33.450;2023-04-19T00:45:47;14.75;72.13
76855;DHT22;66343;44.588;33.450;2023-04-19T00:48:18;14.80;72.00
76855;DHT22;66343;44.588;33.450;2023-04-19T00:50:53;14.79;72.16
76855;DHT22;66343;44.588;33.450;2023-04-19T00:53:22;14.79;72.03
76855;DHT22;66343;44.588;33.450;2023-04-19T00:55:53;14.81;71.80
76855;DHT22;66343;44.588;33.450;2023-04-19T00:58:24;14.81;71.79
76855;DHT22;66343;44.588;33.450;2023-04-19T01:00:58;14.75;72.12
76855;DHT22;66343;44.588;33.450;2023-04-19T01:03:30;14.67;72.46
76855;DHT22;66343;44.588;33.450;2023-04-19T01:06:02;14.65;72.54
76855;DHT22;66343;44.588;33.450;2023-04-19T01:08:35;14.68;72.25
76855;DHT22;66343;44.588;33.450;2023-04-19T01:11:06;14.69;72.13
76855;DHT22;66343;44.588;33.450;2023-04-19T01:13:38;14.67;72.18
76855;DHT22;66343;44.588;33.450;2023-04-19T01:16:07;14.54;72.82
76855;DHT22;66343;44.588;33.450;2023-04-19T01:18:36;14.41;73.46
76855;DHT22;66343;44.588;33.450;2023-04-19T01:21:09;14.40;73.51
76855;DHT22;66343;44.588;33.450;2023-04-19T01:23:39;14.44;73.32
76855;DHT22;66343;44.588;33.450;2023-04-19T01:26:11;14.50;73.02
76855;DHT22;66343;44.588;33.450;2023-04-19T01:28:40;14.50;72.90
76855;DHT22;66343;44.588;33.450;2023-04-19T01:31:09;14.45;72.85
76855;DHT22;66343;44.588;33.450;2023-04-19T01:33:40;14.37;73.15
76855;DHT22;66343;44.588;33.450;2023-04-19T01:36:12;14.41;72.83
76855;DHT22;66343;44.588;33.450;2023-04-19T01:38:42;14.47;72.38
76855;DHT22;66343;44.588;33.450;2023-04-19T01:41:17;14.43;72.51
76855;DHT22;66343;44.588;33.450;2023-04-19T01:43:50;14.51;72.07
76855;DHT22;66343;44.588;33.450;2023-04-19T01:46:19;14.56;71.71
76855;DHT22;66343;44.588;33.450;2023-04-19T01:48:51;14.67;71.37
76855;DHT22;66343;44.588;33.450;2023-04-19T01:51:23;14.71;71.14
76855;DHT22;66343;44.588;33.450;2023-04-19T01:53:54;14.73;70.98
76855;DHT22;66343;44.588;33.450;2023-04-19T01:56:25;14.80;70.81
76855;DHT22;66343;44.588;33.450;2023-04-19T01:58:55;14.80;70.81
76855;DHT22;66343;44.588;33.450;2023-04-19T02:01:27;14.80;70.87
76855;DHT22;66343;44.588;33.450;2023-04-19T02:03:58;14.73;71.21
76855;DHT22;66343;44.588;33.450;2023-04-19T02:06:30;14.72;71.22
76855;DHT22;66343;44.588;33.450;2023-04-19T02:09:01;14.64;71.64
76855;DHT22;66343;44.588;33.450;2023-04-19T02:11:32;14.63;71.58
76855;DHT22;66343;44.588;33.450;2023-04-19T02:14:02;14.64;71.45
76855;DHT22;66343;44.588;33.450;2023-04-19T02:16:34;14.64;71.45
76855;DHT22;66343;44.588;33.450;2023-04-19T02:19:06;14.67;71.29
76855;DHT22;66343;44.588;33.450;2023-04-19T02:21:35;14.74;70.99
76855;DHT22;66343;44.588;33.450;2023-04-19T02:24:04;14.68;71.16
76855;DHT22;66343;44.588;33.450;2023-04-19T02:26:38;14.74;70.78
76855;DHT22;66343;44.588;33.450;2023-04-19T02:29:08;14.73;70.88
76855;DHT22;66343;44.588;33.450;2023-04-19T02:31:49;14.63;71.42
76855;DHT22;66343;44.588;33.450;2023-04-19T02:34:18;14.69;70.97
76855;DHT22;66343;44.588;33.450;2023-04-19T02:36:52;14.70;71.04
76855;DHT22;66343;44.588;33.450;2023-04-19T02:39:21;14.63;71.28
76855;DHT22;66343;44.588;33.450;2023-04-19T02:41:52;14.50;71.79
76855;DHT22;66343;44.588;33.450;2023-04-19T02:44:21;14.43;71.87
76855;DHT22;66343;44.588;33.450;2023-04-19T02:46:53;14.50;71.68
76855;DHT22;66343;44.588;33.450;2023-04-19T02:49:24;14.53;71.38
76855;DHT22;66343;44.588;33.450;2023-04-19T02:51:53;14.59;71.14
76855;DHT22;66343;44.588;33.450;2023-04-19T02:54:25;14.65;71.16
76855;DHT22;66343;44.588;33.450;2023-04-19T02:56:54;14.59;71.29
76855;DHT22;66343;44.588;33.450;2023-04-19T02:59:25;14.56;71.37
76855;DHT22;66343;44.588;33.450;2023-04-19T03:01:59;14.64;71.03
76855;DHT22;66343;44.588;33.450;2023-04-19T03:04:32;14.70;70.64
76855;DHT22;66343;44.588;33.450;2023-04-19T03:07:04;14.74;70.40
76855;DHT22;66343;44.588;33.450;2023-04-19T03:09:34;14.79;70.10
76855;DHT22;66343;44.588;33.450;2023-04-19T03:12:05;14.83;69.87
76855;DHT22;66343;44.588;33.450;2023-04-19T03:14:37;14.88;69.61
76855;DHT22;66343;44.588;33.450;2023-04-19T03:17:09;14.91;69.39
76855;DHT22;66343;44.588;33.450;2023-04-19T03:19:41;14.95;69.26
76855;DHT22;66343;44.588;33.450;2023-04-19T03:22:11;14.88;69.64
76855;DHT22;66343;44.588;33.450;2023-04-19T03:24:40;14.81;69.99
76855;DHT22;66343;44.588;33.450;2023-04-19T03:27:18;14.70;70.27
76855;DHT22;66343;44.588;33.450;2023-04-19T03:29:55;14.60;70.66
76855;DHT22;66343;44.588;33.450;2023-04-19T03:32:27;14.60;70.60
76855;DHT22;66343;44.588;33.450;2023-04-19T03:34:57;14.58;70.65
76855;DHT22;66343;44.588;33.450;2023-04-19T03:37:26;14.63;70.42
76855;DHT22;66343;44.588;33.450;2023-04-19T03:39:56;14.64;70.37
76855;DHT22;66343;44.588;33.450;2023-04-19T03:42:37;14.68;70.20
76855;DHT22;66343;44.588;33.450;2023-04-19T03:45:14;14.72;69.95
76855;DHT22;66343;44.588;33.450;2023-04-19T03:47:49;14.73;69.61
76855;DHT22;66343;44.588;33.450;2023-04-19T03:50:19;14.80;69.58
76855;DHT22;66343;44.588;33.450;2023-04-19T03:52:54;14.85;69.47
76855;DHT22;66343;44.588;33.450;2023-04-19T03:55:26;14.91;69.30
76855;DHT22;66343;44.588;33.450;2023-04-19T03:57:56;14.89;69.15
76855;DHT22;66343;44.588;33.450;2023-04-19T04:00:36;14.91;69.29
76855;DHT22;66343;44.588;33.450;2023-04-19T04:03:05;14.89;69.40
76855;DHT22;66343;44.588;33.450;2023-04-19T04:05:34;14.85;69.52
76855;DHT22;66343;44.588;33.450;2023-04-19T04:08:07;14.84;69.38
76855;DHT22;66343;44.588;33.450;2023-04-19T04:10:39;14.84;69.42
76855;DHT22;66343;44.588;33.450;2023-04-19T04:13:11;14.94;69.27
76855;DHT22;66343;44.588;33.450;2023-04-19T04:15:48;14.99;68.81
76855;DHT22;66343;44.588;33.450;2023-04-19T04:18:20;15.13;68.39
76855;DHT22;66343;44.588;33.450;2023-04-19T04:20:52;15.14;68.51
76855;DHT22;66343;44.588;33.450;2023-04-19T04:23:26;15.18;68.49
76855;DHT22;66343;44.588;33.450;2023-04-19T04:25:59;15.23;68.10
76855;DHT22;66343;44.588;33.450;2023-04-19T04:28:44;15.36;67.79
76855;DHT22;66343;44.588;33.450;2023-04-19T04:31:16;15.49;67.28
76855;DHT22;66343;44.588;33.450;2023-04-19T04:33:47;15.55;67.26
76855;DHT22;66343;44.588;33.450;2023-04-19T04:36:19;15.63;66.49
76855;DHT22;66343;44.588;33.450;2023-04-19T04:38:50;15.76;65.74
76855;DHT22;66343;44.588;33.450;2023-04-19T04:41:24;15.84;65.05
76855;DHT22;66343;44.588;33.450;2023-04-19T04:43:56;15.92;65.13
76855;DHT22;66343;44.588;33.450;2023-04-19T04:46:41;16.03;64.62
76855;DHT22;66343;44.588;33.450;2023-04-19T04:49:14;16.14;64.43
76855;DHT22;66343;44.588;33.450;2023-04-19T04:51:45;16.19;63.40
76855;DHT22;66343;44.588;33.450;2023-04-19T04:54:15;16.21;63.12
76855;DHT22;66343;44.588;33.450;2023-04-19T04:56:49;16.21;62.75
76855;DHT22;66343;44.588;33.450;2023-04-19T04:59:19;16.17;62.83
76855;DHT22;66343;44.588;33.450;2023-04-19T05:01:51;16.19;62.63
76855;DHT22;66343;44.588;33.450;2023-04-19T05:04:20;16.28;62.66
76855;DHT22;66343;44.588;33.450;2023-04-19T05:06:52;16.35;62.58
76855;DHT22;66343;44.588;33.450;2023-04-19T05:09:27;16.39;62.40
76855;DHT22;66343;44.588;33.450;2023-04-19T05:12:01;16.43;62.15
76855;DHT22;66343;44.588;33.450;2023-04-19T05:14:33;16.48;62.14
76855;DHT22;66343;44.588;33.450;2023-04-19T05:17:02;16.52;61.76
76855;DHT22;66343;44.588;33.450;2023-04-19T05:19:37;16.61;61.72
76855;DHT22;66343;44.588;33.450;2023-04-19T05:22:13;16.66;61.47
76855;DHT22;66343;44.588;33.450;2023-04-19T05:24:42;16.72;61.51
76855;DHT22;66343;44.588;33.450;2023-04-19T05:27:12;16.73;61.37
76855;DHT22;66343;44.588;33.450;2023-04-19T05:29:45;16.76;61.70
76855;DHT22;66343;44.588;33.450;2023-04-19T05:32:16;16.78;60.73
76855;DHT22;66343;44.588;33.450;2023-04-19T05:34:51;16.90;60.28
76855;DHT22;66343;44.588;33.450;2023-04-19T05:37:25;16.98;60.00
76855;DHT22;66343;44.588;33.450;2023-04-19T05:39:54;17.05;59.56
76855;DHT22;66343;44.588;33.450;2023-04-19T05:42:25;17.01;59.39
76855;DHT22;66343;44.588;33.450;2023-04-19T05:45:00;16.98;58.59
76855;DHT22;66343;44.588;33.450;2023-04-19T05:47:32;16.99;58.52
76855;DHT22;66343;44.588;33.450;2023-04-19T05:50:19;16.98;58.92
76855;DHT22;66343;44.588;33.450;2023-04-19T05:53:09;17.00;58.74
76855;DHT22;66343;44.588;33.450;2023-04-19T05:55:38;17.04;58.17
76855;DHT22;66343;44.588;33.450;2023-04-19T05:58:08;17.07;57.75
76855;DHT22;66343;44.588;33.450;2023-04-19T06:00:38;17.10;57.62
76855;DHT22;66343;44.588;33.450;2023-04-19T06:03:11;17.14;57.11
76855;DHT22;66343;44.588;33.450;2023-04-19T06:05:42;17.22;57.11
76855;DHT22;66343;44.588;33.450;2023-04-19T06:08:14;17.31;57.39
76855;DHT22;66343;44.588;33.450;2023-04-19T06:10:44;17.33;57.64
76855;DHT22;66343;44.588;33.450;2023-04-19T06:13:24;17.35;57.91
76855;DHT22;66343;44.588;33.450;2023-04-19T06:15:55;17.41;57.11
76855;DHT22;66343;44.588;33.450;2023-04-19T06:18:29;17.45;57.77
76855;DHT22;66343;44.588;33.450;2023-04-19T06:20:58;17.47;57.91
76855;DHT22;66343;44.588;33.450;2023-04-19T06:23:27;17.46;57.74
76855;DHT22;66343;44.588;33.450;2023-04-19T06:26:00;17.45;58.32
76855;DHT22;66343;44.588;33.450;2023-04-19T06:28:29;17.49;58.69
76855;DHT22;66343;44.588;33.450;2023-04-19T06:31:01;17.51;58.69
76855;DHT22;66343;44.588;33.450;2023-04-19T06:33:30;17.49;58.76
76855;DHT22;66343;44.588;33.450;2023-04-19T06:36:01;17.43;59.03
76855;DHT22;66343;44.588;33.450;2023-04-19T06:38:34;17.41;59.38
76855;DHT22;66343;44.588;33.450;2023-04-19T06:41:06;17.44;58.43
76855;DHT22;66343;44.588;33.450;2023-04-19T06:43:40;17.38;58.48
76855;DHT22;66343;44.588;33.450;2023-04-19T06:46:14;17.36;59.00
76855;DHT22;66343;44.588;33.450;2023-04-19T06:48:47;17.23;59.50
76855;DHT22;66343;44.588;33.450;2023-04-19T06:51:23;17.10;60.28
76855;DHT22;66343;44.588;33.450;2023-04-19T06:53:53;17.02;60.75
76855;DHT22;66343;44.588;33.450;2023-04-19T06:56:46;16.91;61.22
76855;DHT22;66343;44.588;33.450;2023-04-19T06:59:20;16.91;61.56
76855;DHT22;66343;44.588;33.450;2023-04-19T07:01:51;16.93;61.31
76855;DHT22;66343;44.588;33.450;2023-04-19T07:04:25;16.87;61.11
76855;DHT22;66343;44.588;33.450;2023-04-19T07:06:55;16.67;61.52
76855;DHT22;66343;44.588;33.450;2023-04-19T07:09:25;16.54;61.98
76855;DHT22;66343;44.588;33.450;2023-04-19T07:11:54;16.55;62.36
76855;DHT22;66343;44.588;33.450;2023-04-19T07:14:23;16.54;62.16
76855;DHT22;66343;44.588;33.450;2023-04-19T07:16:53;16.51;62.50
76855;DHT22;66343;44.588;33.450;2023-04-19T07:19:30;16.59;62.03
76855;DHT22;66343;44.588;33.450;2023-04-19T07:22:00;16.58;61.67
76855;DHT22;66343;44.588;33.450;2023-04-19T07:24:33;16.49;61.79
76855;DHT22;66343;44.588;33.450;2023-04-19T07:27:05;16.47;61.42
76855;DHT22;66343;44.588;33.450;2023-04-19T07:29:34;16.44;62.15
76855;DHT22;66343;44.588;33.450;2023-04-19T07:32:04;16.43;62.66
76855;DHT22;66343;44.588;33.450;2023-04-19T07:34:33;16.54;62.90
76855;DHT22;66343;44.588;33.450;2023-04-19T07:37:03;16.59;63.09
76855;DHT22;66343;44.588;33.450;2023-04-19T07:39:35;16.79;63.46
76855;DHT22;66343;44.588;33.450;2023-04-19T07:42:06;16.94;62.67
76855;DHT22;66343;44.588;33.450;2023-04-19T07:44:35;16.98;62.65
76855;DHT22;66343;44.588;33.450;2023-04-19T07:47:07;16.95;62.63
76855;DHT22;66343;44.588;33.450;2023-04-19T07:49:38;17.00;61.77
76855;DHT22;66343;44.588;33.450;2023-04-19T07:52:08;16.89;61.67
76855;DHT22;66343;44.588;33.450;2023-04-19T07:54:37;16.77;62.60
76855;DHT22;66343;44.588;33.450;2023-04-19T07:57:11;16.49;64.46
76855;DHT22;66343;44.588;33.450;2023-04-19T07:59:41;16.28;64.97
76855;DHT22;66343;44.588;33.450;2023-04-19T08:02:09;16.20;66.53
76855;DHT22;66343;44.588;33.450;2023-04-19T08:04:41;16.19;67.10
76855;DHT22;66343;44.588;33.450;2023-04-19T08:07:13;16.35;66.93
76855;DHT22;66343;44.588;33.450;2023-04-19T08:09:42;16.34;66.23
76855;DHT22;66343;44.588;33.450;2023-04-19T08:12:11;16.27;65.92
76855;DHT22;66343;44.588;33.450;2023-04-19T08:15:03;16.33;66.16
76855;DHT22;66343;44.588;33.450;2023-04-19T08:17:50;16.17;66.75
76855;DHT22;66343;44.588;33.450;2023-04-19T08:20:22;16.12;66.54
76855;DHT22;66343;44.588;33.450;2023-04-19T08:22:52;16.13;66.19
76855;DHT22;66343;44.588;33.450;2023-04-19T08:25:24;16.08;66.57
76855;DHT22;66343;44.588;33.450;2023-04-19T08:27:56;16.06;67.09
76855;DHT22;66343;44.588;33.450;2023-04-19T08:30:28;15.96;67.10
76855;DHT22;66343;44.588;33.450;2023-04-19T08:32:57;15.90;67.67
76855;DHT22;66343;44.588;33.450;2023-04-19T08:35:26;15.93;68.17
76855;DHT22;66343;44.588;33.450;2023-04-19T08:37:57;16.03;67.45
76855;DHT22;66343;44.588;33.450;2023-04-19T08:40:32;15.91;66.78
76855;DHT22;66343;44.588;33.450;2023-04-19T08:43:04;15.95;67.67
76855;DHT22;66343;44.588;33.450;2023-04-19T08:45:34;15.95;67.94
76855;DHT22;66343;44.588;33.450;2023-04-19T08:48:09;15.93;68.39
76855;DHT22;66343;44.588;33.450;2023-04-19T08:50:44;16.03;68.60
76855;DHT22;66343;44.588;33.450;2023-04-19T08:53:35;15.96;68.15
76855;DHT22;66343;44.588;33.450;2023-04-19T08:56:06;15.86;68.89
76855;DHT22;66343;44.588;33.450;2023-04-19T08:58:50;15.77;68.40
76855;DHT22;66343;44.588;33.450;2023-04-19T09:01:39;15.77;68.97
76855;DHT22;66343;44.588;33.450;2023-04-19T09:04:11;15.88;69.00
76855;DHT22;66343;44.588;33.450;2023-04-19T09:07:02;16.05;69.71
76855;DHT22;66343;44.588;33.450;2023-04-19T09:09:33;16.06;68.45
76855;DHT22;66343;44.588;33.450;2023-04-19T09:12:16;16.06;68.45
76855;DHT22;66343;44.588;33.450;2023-04-19T09:14:46;15.89;68.85
76855;DHT22;66343;44.588;33.450;2023-04-19T09:17:20;15.96;68.43
76855;DHT22;66343;44.588;33.450;2023-04-19T09:19:52;16.04;68.39
76855;DHT22;66343;44.588;33.450;2023-04-19T09:22:21;16.19;68.32
76855;DHT22;66343;44.588;33.450;2023-04-19T09:24:51;16.14;67.68
76855;DHT22;66343;44.588;33.450;2023-04-19T09:27:43;16.26;67.78
76855;DHT22;66343;44.588;33.450;2023-04-19T09:30:12;16.36;66.61
76855;DHT22;66343;44.588;33.450;2023-04-19T09:32:55;16.44;67.27
76855;DHT22;66343;44.588;33.450;2023-04-19T09:35:45;16.48;66.68
76855;DHT22;66343;44.588;33.450;2023-04-19T09:38:17;16.40;67.11
76855;DHT22;66343;44.588;33.450;2023-04-19T09:40:49;16.31;67.36
76855;DHT22;66343;44.588;33.450;2023-04-19T09:43:27;16.27;67.57
76855;DHT22;66343;44.588;33.450;2023-04-19T09:46:48;16.21;67.73
76855;DHT22;66343;44.588;33.450;2023-04-19T09:49:26;16.20;67.88
76855;DHT22;66343;44.588;33.450;2023-04-19T09:52:15;16.18;68.04
76855;DHT22;66343;44.588;33.450;2023-04-19T09:54:47;16.00;68.39
76855;DHT22;66343;44.588;33.450;2023-04-19T09:57:22;15.89;69.51
76855;DHT22;66343;44.588;33.450;2023-04-19T09:59:51;15.90;68.65
76855;DHT22;66343;44.588;33.450;2023-04-19T10:02:21;15.82;69.18
76855;DHT22;66343;44.588;33.450;2023-04-19T10:04:54;15.96;68.00
76855;DHT22;66343;44.588;33.450;2023-04-19T10:07:45;15.95;68.76
76855;DHT22;66343;44.588;33.450;2023-04-19T10:10:16;16.12;67.91
76855;DHT22;66343;44.588;33.450;2023-04-19T10:12:51;16.22;66.75
76855;DHT22;66343;44.588;33.450;2023-04-19T10:15:24;16.28;66.70
76855;DHT22;66343;44.588;33.450;2023-04-19T10:18:12;16.20;66.89
76855;DHT22;66343;44.588;33.450;2023-04-19T10:23:13;15.92;68.07
76855;DHT22;66343;44.588;33.450;2023-04-19T10:25:46;16.17;67.30
76855;DHT22;66343;44.588;33.450;2023-04-19T10:28:17;16.16;67.37
76855;DHT22;66343;44.588;33.450;2023-04-19T10:31:01;16.30;67.13
76855;DHT22;66343;44.588;33.450;2023-04-19T10:33:35;16.10;68.03
76855;DHT22;66343;44.588;33.450;2023-04-19T10:36:08;16.15;67.46
76855;DHT22;66343;44.588;33.450;2023-04-19T10:38:45;16.33;66.93
76855;DHT22;66343;44.588;33.450;2023-04-19T10:41:20;16.27;66.71
76855;DHT22;66343;44.588;33.450;2023-04-19T10:49:03;16.74;65.43
76855;DHT22;66343;44.588;33.450;2023-04-19T10:51:38;16.75;65.46
76855;DHT22;66343;44.588;33.450;2023-04-19T10:54:31;16.67;65.51
76855;DHT22;66343;44.588;33.450;2023-04-19T10:57:06;16.75;65.88
76855;DHT22;66343;44.588;33.450;2023-04-19T10:59:39;16.76;65.21
76855;DHT22;66343;44.588;33.450;2023-04-19T11:04:57;16.57;65.84
76855;DHT22;66343;44.588;33.450;2023-04-19T11:07:26;16.59;65.66
76855;DHT22;66343;44.588;33.450;2023-04-19T11:09:58;16.48;66.59
76855;DHT22;66343;44.588;33.450;2023-04-19T11:12:29;16.47;66.49
76855;DHT22;66343;44.588;33.450;2023-04-19T11:14:58;16.43;66.46
76855;DHT22;66343;44.588;33.450;2023-04-19T11:17:31;16.26;66.88
76855;DHT22;66343;44.588;33.450;2023-04-19T11:20:04;16.02;68.03
76855;DHT22;66343;44.588;33.450;2023-04-19T11:22:44;16.12;67.59
76855;DHT22;66343;44.588;33.450;2023-04-19T11:25:19;16.19;67.11
76855;DHT22;66343;44.588;33.450;2023-04-19T11:27:51;16.34;67.14
76855;DHT22;66343;44.588;33.450;2023-04-19T11:30:28;16.13;67.99
76855;DHT22;66343;44.588;33.450;2023-04-19T11:33:05;16.16;67.97
76855;DHT22;66343;44.588;33.450;2023-04-19T11:35:36;16.04;67.26
76855;DHT22;66343;44.588;33.450;2023-04-19T11:38:14;15.69;69.46
76855;DHT22;66343;44.588;33.450;2023-04-19T11:41:00;15.59;69.20
76855;DHT22;66343;44.588;33.450;2023-04-19T11:43:37;15.44;70.26
76855;DHT22;66343;44.588;33.450;2023-04-19T11:46:10;15.39;70.63
76855;DHT22;66343;44.588;33.450;2023-04-19T11:48:52;15.39;70.42
76855;DHT22;66343;44.588;33.450;2023-04-19T11:51:22;15.30;71.15
76855;DHT22;66343;44.588;33.450;2023-04-19T11:53:51;15.26;71.02
76855;DHT22;66343;44.588;33.450;2023-04-19T11:56:25;14.93;72.37
76855;DHT22;66343;44.588;33.450;2023-04-19T11:58:58;14.70;73.56
76855;DHT22;66343;44.588;33.450;2023-04-19T12:01:28;14.60;74.25
76855;DHT22;66343;44.588;33.450;2023-04-19T12:04:03;14.80;73.94
76855;DHT22;66343;44.588;33.450;2023-04-19T12:06:34;14.70;73.89
76855;DHT22;66343;44.588;33.450;2023-04-19T12:09:07;14.67;73.83
76855;DHT22;66343;44.588;33.450;2023-04-19T12:11:45;14.56;74.26
76855;DHT22;66343;44.588;33.450;2023-04-19T12:14:17;14.59;74.38
76855;DHT22;66343;44.588;33.450;2023-04-19T12:17:11;14.65;74.09
76855;DHT22;66343;44.588;33.450;2023-04-19T12:22:20;14.47;74.40
76855;DHT22;66343;44.588;33.450;2023-04-19T12:24:54;14.27;75.66
76855;DHT22;66343;44.588;33.450;2023-04-19T12:27:28;14.28;75.92
76855;DHT22;66343;44.588;33.450;2023-04-19T12:30:00;14.27;75.83
76855;DHT22;66343;44.588;33.450;2023-04-19T12:32:33;14.30;75.94
76855;DHT22;66343;44.588;33.450;2023-04-19T12:35:02;14.35;75.61
76855;DHT22;66343;44.588;33.450;2023-04-19T12:37:34;14.26;75.98
76855;DHT22;66343;44.588;33.450;2023-04-19T12:40:07;14.21;76.35
76855;DHT22;66343;44.588;33.450;2023-04-19T12:42:37;14.20;76.29
76855;DHT22;66343;44.588;33.450;2023-04-19T12:45:12;14.30;75.89
76855;DHT22;66343;44.588;33.450;2023-04-19T12:47:43;14.41;74.76
76855;DHT22;66343;44.588;33.450;2023-04-19T12:50:17;14.60;74.45
76855;DHT22;66343;44.588;33.450;2023-04-19T12:52:47;15.21;73.07
76855;DHT22;66343;44.588;33.450;2023-04-19T12:55:19;16.14;68.50
76855;DHT22;66343;44.588;33.450;2023-04-19T12:57:48;16.91;66.06
76855;DHT22;66343;44.588;33.450;2023-04-19T13:00:18;17.44;63.52
76855;DHT22;66343;44.588;33.450;2023-04-19T13:02:50;17.68;62.08
76855;DHT22;66343;44.588;33.450;2023-04-19T13:05:20;17.84;62.05
76855;DHT22;66343;44.588;33.450;2023-04-19T13:07:54;17.82;61.47
76855;DHT22;66343;44.588;33.450;2023-04-19T13:10:26;17.53;62.72
76855;DHT22;66343;44.588;33.450;2023-04-19T13:12:58;17.30;63.35
76855;DHT22;66343;44.588;33.450;2023-04-19T13:15:31;17.02;64.13
76855;DHT22;66343;44.588;33.450;2023-04-19T13:18:00;16.81;65.21
76855;DHT22;66343;44.588;33.450;2023-04-19T13:20:30;16.57;65.85
76855;DHT22;66343;44.588;33.450;2023-04-19T13:23:01;16.56;66.40
76855;DHT22;66343;44.588;33.450;2023-04-19T13:25:30;16.49;66.31
76855;DHT22;66343;44.588;33.450;2023-04-19T13:28:02;16.18;67.00
76855;DHT22;66343;44.588;33.450;2023-04-19T13:30:32;15.81;68.43
76855;DHT22;66343;44.588;33.450;2023-04-19T13:33:05;15.73;69.15
76855;DHT22;66343;44.588;33.450;2023-04-19T13:35:36;15.72;69.68
76855;DHT22;66343;44.588;33.450;2023-04-19T13:38:07;15.60;69.97
76855;DHT22;66343;44.588;33.450;2023-04-19T13:40:37;15.62;69.84
76855;DHT22;66343;44.588;33.450;2023-04-19T13:43:09;15.65;69.90
76855;DHT22;66343;44.588;33.450;2023-04-19T13:45:40;15.65;69.39
76855;DHT22;66343;44.588;33.450;2023-04-19T13:48:10;15.70;69.11
76855;DHT22;66343;44.588;33.450;2023-04-19T13:50:41;15.80;69.07
76855;DHT22;66343;44.588;33.450;2023-04-19T13:53:11;15.87;69.09
76855;DHT22;66343;44.588;33.450;2023-04-19T13:55:44;16.11;68.42
76855;DHT22;66343;44.588;33.450;2023-04-19T13:58:13;16.28;67.46
76855;DHT22;66343;44.588;33.450;2023-04-19T14:00:46;16.30;66.81
76855;DHT22;66343;44.588;33.450;2023-04-19T14:03:16;16.12;67.23
76855;DHT22;66343;44.588;33.450;2023-04-19T14:05:52;16.02;67.63
76855;DHT22;66343;44.588;33.450;2023-04-19T14:08:21;15.90;68.01
76855;DHT22;66343;44.588;33.450;2023-04-19T14:10:56;15.92;68.31
76855;DHT22;66343;44.588;33.450;2023-04-19T14:13:25;15.92;68.29
76855;DHT22;66343;44.588;33.450;2023-04-19T14:15:57;15.71;69.16
76855;DHT22;66343;44.588;33.450;2023-04-19T14:18:27;15.60;69.75
76855;DHT22;66343;44.588;33.450;2023-04-19T14:20:59;15.56;69.85
76855;DHT22;66343;44.588;33.450;2023-04-19T14:23:31;15.40;70.07
76855;DHT22;66343;44.588;33.450;2023-04-19T14:26:03;15.38;70.48
76855;DHT22;66343;44.588;33.450;2023-04-19T14:28:35;15.40;70.71
76855;DHT22;66343;44.588;33.450;2023-04-19T14:31:06;15.32;70.52
76855;DHT22;66343;44.588;33.450;2023-04-19T14:33:35;15.21;71.00
76855;DHT22;66343;44.588;33.450;2023-04-19T14:36:07;15.18;71.43
76855;DHT22;66343;44.588;33.450;2023-04-19T14:38:45;15.14;71.36
76855;DHT22;66343;44.588;33.450;2023-04-19T14:41:17;15.14;71.25
76855;DHT22;66343;44.588;33.450;2023-04-19T14:43:49;15.03;71.96
76855;DHT22;66343;44.588;33.450;2023-04-19T14:46:19;15.02;71.81
76855;DHT22;66343;44.588;33.450;2023-04-19T14:48:53;14.94;72.06
76855;DHT22;66343;44.588;33.450;2023-04-19T14:51:23;14.87;72.87
76855;DHT22;66343;44.588;33.450;2023-04-19T14:53:52;14.86;72.87
76855;DHT22;66343;44.588;33.450;2023-04-19T14:56:23;14.87;72.69
76855;DHT22;66343;44.588;33.450;2023-04-19T14:59:01;14.82;72.87
76855;DHT22;66343;44.588;33.450;2023-04-19T15:01:33;14.75;72.98
76855;DHT22;66343;44.588;33.450;2023-04-19T15:04:02;14.65;73.57
76855;DHT22;66343;44.588;33.450;2023-04-19T15:06:37;14.62;73.99
76855;DHT22;66343;44.588;33.450;2023-04-19T15:09:09;14.58;74.10
76855;DHT22;66343;44.588;33.450;2023-04-19T15:11:38;14.52;74.34
76855;DHT22;66343;44.588;33.450;2023-04-19T15:14:10;14.40;74.89
76855;DHT22;66343;44.588;33.450;2023-04-19T15:16:39;14.35;75.28
76855;DHT22;66343;44.588;33.450;2023-04-19T15:19:11;14.36;75.30
76855;DHT22;66343;44.588;33.450;2023-04-19T15:21:40;14.41;75.32
76855;DHT22;66343;44.588;33.450;2023-04-19T15:24:12;14.48;75.00
76855;DHT22;66343;44.588;33.450;2023-04-19T15:26:44;14.43;75.11
76855;DHT22;66343;44.588;33.450;2023-04-19T15:29:19;14.34;75.44
76855;DHT22;66343;44.588;33.450;2023-04-19T15:31:51;14.25;75.95
76855;DHT22;66343;44.588;33.450;2023-04-19T15:34:23;14.26;76.06
76855;DHT22;66343;44.588;33.450;2023-04-19T15:36:55;14.14;76.67
76855;DHT22;66343;44.588;33.450;2023-04-19T15:39:29;14.01;77.08
76855;DHT22;66343;44.588;33.450;2023-04-19T15:41:58;13.91;77.80
76855;DHT22;66343;44.588;33.450;2023-04-19T15:44:28;13.92;77.89
76855;DHT22;66343;44.588;33.450;2023-04-19T15:47:00;13.79;78.46
76855;DHT22;66343;44.588;33.450;2023-04-19T15:49:30;13.66;79.01
76855;DHT22;66343;44.588;33.450;2023-04-19T15:52:02;13.64;79.33
76855;DHT22;66343;44.588;33.450;2023-04-19T15:54:32;13.58;79.52
76855;DHT22;66343;44.588;33.450;2023-04-19T15:57:01;13.45;79.82
76855;DHT22;66343;44.588;33.450;2023-04-19T15:59:30;13.37;80.35
76855;DHT22;66343;44.588;33.450;2023-04-19T16:02:00;13.35;80.48